| time (UTC) | temp C | wind direction | speed KPH | gust KPH | rain 1hr cm | rain 24hr cm | rain mn cm | humidity % | barometer mb |
| 20260506202251 | 20 | 130 | 4.8 | 8.0 | 0.00 | 0.05 | 0.05 | 80 | 1008.6 |
| 20260506201747 | 20 | 122 | 6.4 | 8.0 | 0.00 | 0.05 | 0.05 | 79 | 1008.6 |
| 20260506201244 | 20 | 79 | 8.0 | 11.3 | 0.00 | 0.05 | 0.05 | 79 | 1008.6 |
| 20260506200742 | 20 | 82 | 6.4 | 9.7 | 0.00 | 0.05 | 0.05 | 79 | 1008.7 |
| 20260506200238 | 20 | 119 | 4.8 | 9.7 | 0.00 | 0.05 | 0.05 | 79 | 1008.9 |
| 20260506195734 | 20 | 85 | 6.4 | 9.7 | 0.00 | 0.05 | 0.05 | 80 | 1008.9 |
| 20260506195231 | 19 | 116 | 6.4 | 11.3 | 0.00 | 0.05 | 0.05 | 83 | 1008.8 |
| 20260506194728 | 18 | 197 | 3.2 | 4.8 | 0.00 | 0.05 | 0.05 | 85 | 1009.1 |
| 20260506194224 | 18 | 161 | 4.8 | 8.0 | 0.00 | 0.05 | 0.05 | 85 | 1009.2 |
| 20260506193723 | 18 | 118 | 6.4 | 8.0 | 0.00 | 0.05 | 0.05 | 86 | 1009.3 |
| 20260506193219 | 18 | 80 | 9.7 | 12.9 | 0.00 | 0.05 | 0.05 | 85 | 1009.4 |
| 20260506192715 | 18 | 111 | 9.7 | 12.9 | 0.00 | 0.05 | 0.05 | 85 | 1009.3 |
| 20260506192212 | 18 | 170 | 4.8 | 4.8 | 0.00 | 0.05 | 0.05 | 86 | 1009.2 |
| 20260506191709 | 18 | 158 | 9.7 | 14.5 | 0.00 | 0.05 | 0.05 | 86 | 1009.1 |
| 20260506191205 | 17 | 183 | 4.8 | 8.0 | 0.00 | 0.05 | 0.05 | 88 | 1009.3 |
| 20260506190702 | 17 | 125 | 6.4 | 8.0 | 0.00 | 0.05 | 0.05 | 89 | 1009.3 |
| 20260506190153 | 17 | 145 | 6.4 | 8.0 | 0.00 | 0.05 | 0.05 | 91 | 1009.4 |
| 20260506185650 | 16 | 158 | 14.5 | 16.1 | 0.00 | 0.05 | 0.05 | 91 | 1009.7 |
| 20260506185146 | 16 | 215 | 4.8 | 8.0 | 0.00 | 0.05 | 0.05 | 93 | 1009.8 |
| 20260506184644 | 16 | 133 | 6.4 | 9.7 | 0.00 | 0.05 | 0.05 | 93 | 1009.7 |
| 20260506184142 | 17 | 83 | 6.4 | 9.7 | 0.00 | 0.05 | 0.05 | 93 | 1010.0 |
| 20260506183638 | 17 | 310 | 6.4 | 8.0 | 0.00 | 0.05 | 0.05 | 94 | 1010.1 |
| 20260506183134 | 16 | 134 | 9.7 | 11.3 | 0.18 | 0.05 | 0.05 | 94 | 1009.8 |
| 20260506182632 | 16 | 177 | 6.4 | 8.0 | 0.30 | 0.05 | 0.05 | 94 | 1009.8 |
| 20260506182128 | 16 | 154 | 4.8 | 8.0 | 0.13 | 0.03 | 0.03 | 94 | 1009.7 |
| 20260506181626 | 16 | 125 | 3.2 | 4.8 | 0.00 | 0.00 | 0.00 | 93 | 1010.3 |
| 20260506181123 | 16 | 195 | 6.4 | 8.0 | 0.00 | 0.00 | 0.00 | 93 | 1010.2 |
| 20260506180620 | 16 | 86 | 4.8 | 4.8 | 0.00 | 0.00 | 0.00 | 92 | 1010.2 |
| 20260506180116 | 16 | 202 | 4.8 | 8.0 | 0.00 | 0.00 | 0.00 | 91 | 1010.3 |
| 20260506175613 | 17 | 96 | 4.8 | 4.8 | 0.00 | 0.00 | 0.00 | 89 | 1010.3 |
| 20260506175109 | 17 | 111 | 6.4 | 8.0 | 0.00 | 0.00 | 0.00 | 86 | 1010.5 |
| 20260506174608 | 17 | 124 | 4.8 | 8.0 | 0.00 | 0.00 | 0.00 | 85 | 1010.4 |
| 20260506174104 | 18 | 188 | 4.8 | 4.8 | 0.00 | 0.00 | 0.00 | 82 | 1010.5 |
| 20260506173602 | 18 | 110 | 11.3 | 14.5 | 0.00 | 0.00 | 0.00 | 82 | 1010.4 |
| 20260506173058 | 18 | 121 | 6.4 | 9.7 | 0.00 | 0.00 | 0.00 | 82 | 1010.6 |
| 20260506172556 | 18 | 112 | 11.3 | 14.5 | 0.00 | 0.00 | 0.00 | 82 | 1010.3 |
| 20260506172051 | 18 | 32 | 6.4 | 9.7 | 0.00 | 0.00 | 0.00 | 82 | 1010.3 |
| 20260506171549 | 17 | 203 | 9.7 | 14.5 | 0.00 | 0.00 | 0.00 | 83 | 1010.4 |
| 20260506171047 | 18 | 163 | 8.0 | 9.7 | 0.00 | 0.00 | 0.00 | 83 | 1010.5 |
| 20260506170544 | 17 | 104 | 9.7 | 12.9 | 0.00 | 0.00 | 0.00 | 82 | 1010.6 |
| 20260506170041 | 17 | 103 | 4.8 | 9.7 | 0.00 | 0.00 | 0.00 | 83 | 1010.7 |
| 20260506165540 | 17 | 89 | 6.4 | 9.7 | 0.00 | 0.00 | 0.00 | 82 | 1010.7 |
| 20260506165036 | 17 | 241 | 8.0 | 9.7 | 0.00 | 0.00 | 0.00 | 81 | 1010.9 |
| 20260506164533 | 18 | 149 | 8.0 | 11.3 | 0.00 | 0.00 | 0.00 | 81 | 1011.0 |
| 20260506164030 | 18 | 114 | 9.7 | 12.9 | 0.00 | 0.00 | 0.00 | 81 | 1011.1 |
| 20260506163526 | 17 | 89 | 11.3 | 16.1 | 0.00 | 0.00 | 0.00 | 82 | 1011.5 |
| 20260506163022 | 17 | 81 | 11.3 | 11.3 | 0.00 | 0.00 | 0.00 | 82 | 1011.7 |
| 20260506162518 | 17 | 44 | 8.0 | 11.3 | 0.00 | 0.00 | 0.00 | 82 | 1011.6 |
| 20260506162015 | 17 | 97 | 8.0 | 11.3 | 0.00 | 0.00 | 0.00 | 82 | 1011.5 |
| 20260506161513 | 17 | 161 | 6.4 | 8.0 | 0.00 | 0.00 | 0.00 | 83 | 1011.5 |
| 20260506161010 | 17 | 51 | 8.0 | 11.3 | 0.00 | 0.00 | 0.00 | 82 | 1011.5 |
| 20260506160507 | 17 | 281 | 6.4 | 9.7 | 0.00 | 0.00 | 0.00 | 83 | 1011.3 |
| 20260506160005 | 17 | 71 | 11.3 | 12.9 | 0.00 | 0.00 | 0.00 | 83 | 1011.7 |
| 20260506155502 | 17 | 94 | 9.7 | 20.9 | 0.00 | 0.00 | 0.00 | 83 | 1011.7 |
| 20260506153634 | 18 | 134 | 9.7 | 12.9 | 0.00 | 0.00 | 0.00 | 80 | 1011.9 |
| 20260506153131 | 18 | 121 | 9.7 | 14.5 | 0.00 | 0.00 | 0.00 | 80 | 1011.9 |
| 20260506152628 | 18 | 104 | 11.3 | 14.5 | 0.00 | 0.00 | 0.00 | 79 | 1011.6 |
| 20260506152126 | 18 | 81 | 8.0 | 12.9 | 0.00 | 0.00 | 0.00 | 78 | 1011.8 |
| 20260506151625 | 18 | 70 | 6.4 | 11.3 | 0.00 | 0.00 | 0.00 | 78 | 1011.8 |
| 20260506151121 | 18 | 271 | 4.8 | 4.8 | 0.00 | 0.00 | 0.00 | 79 | 1011.7 |
| 20260506150618 | 18 | 130 | 9.7 | 12.9 | 0.00 | 0.00 | 0.00 | 78 | 1011.7 |
| 20260506150115 | 18 | 80 | 6.4 | 9.7 | 0.00 | 0.00 | 0.00 | 80 | 1011.8 |
| 20260506145612 | 18 | 240 | 6.4 | 9.7 | 0.00 | 0.00 | 0.00 | 81 | 1012.0 |
| 20260506145109 | 18 | 149 | 8.0 | 9.7 | 0.00 | 0.00 | 0.00 | 80 | 1011.8 |
| 20260506144606 | 18 | 242 | 4.8 | 4.8 | 0.00 | 0.00 | 0.00 | 79 | 1012.0 |
| 20260506144102 | 18 | 97 | 8.0 | 11.3 | 0.00 | 0.00 | 0.00 | 79 | 1011.9 |
| 20260506143600 | 19 | 137 | 8.0 | 11.3 | 0.00 | 0.00 | 0.00 | 78 | 1012.2 |
| 20260506143058 | 19 | 155 | 9.7 | 11.3 | 0.00 | 0.00 | 0.00 | 77 | 1012.1 |
| 20260506142556 | 19 | 202 | 8.0 | 12.9 | 0.00 | 0.00 | 0.00 | 77 | 1011.9 |
| 20260506142054 | 19 | 133 | 8.0 | 9.7 | 0.00 | 0.00 | 0.00 | 78 | 1012.1 |
| 20260506141551 | 18 | 116 | 9.7 | 11.3 | 0.00 | 0.00 | 0.00 | 78 | 1012.0 |
| 20260506141049 | 18 | 136 | 4.8 | 9.7 | 0.00 | 0.00 | 0.00 | 80 | 1012.0 |
| 20260506140547 | 18 | 125 | 4.8 | 9.7 | 0.00 | 0.00 | 0.00 | 80 | 1012.2 |
| 20260506140044 | 18 | 315 | 8.0 | 11.3 | 0.00 | 0.00 | 0.00 | 82 | 1011.9 |
| 20260506135541 | 17 | 96 | 6.4 | 9.7 | 0.00 | 0.00 | 0.00 | 82 | 1012.1 |
| 20260506135037 | 17 | 136 | 6.4 | 8.0 | 0.00 | 0.00 | 0.00 | 83 | 1012.2 |
| 20260506134533 | 17 | 248 | 3.2 | 4.8 | 0.00 | 0.00 | 0.00 | 83 | 1012.2 |
| 20260506134029 | 18 | 107 | 11.3 | 14.5 | 0.00 | 0.00 | 0.00 | 81 | 1012.3 |
| 20260506133527 | 17 | 116 | 8.0 | 11.3 | 0.00 | 0.00 | 0.00 | 82 | 1012.2 |
| 20260506133024 | 17 | 174 | 4.8 | 4.8 | 0.00 | 0.00 | 0.00 | 82 | 1012.4 |
| 20260506132521 | 18 | 144 | 4.8 | 8.0 | 0.00 | 0.00 | 0.00 | 81 | 1012.4 |
| 20260506132018 | 18 | 260 | 4.8 | 4.8 | 0.00 | 0.00 | 0.00 | 81 | 1012.4 |
| 20260506131515 | 18 | 158 | 4.8 | 4.8 | 0.00 | 0.00 | 0.00 | 81 | 1012.5 |
| 20260506131011 | 18 | 341 | 8.0 | 9.7 | 0.00 | 0.00 | 0.00 | 80 | 1012.4 |
| 20260506130508 | 18 | 182 | 4.8 | 8.0 | 0.00 | 0.00 | 0.00 | 81 | 1012.5 |
| 20260506130006 | 18 | 172 | 6.4 | 9.7 | 0.00 | 0.00 | 0.00 | 81 | 1012.5 |
| 20260506125504 | 18 | 255 | 4.8 | 8.0 | 0.00 | 0.00 | 0.00 | 81 | 1012.5 |
| 20260506125001 | 17 | 129 | 8.0 | 9.7 | 0.00 | 0.00 | 0.00 | 82 | 1012.6 |
| 20260506124459 | 17 | 133 | 6.4 | 9.7 | 0.00 | 0.00 | 0.00 | 82 | 1012.6 |
| 20260506123957 | 17 | 73 | 9.7 | 12.9 | 0.00 | 0.00 | 0.00 | 83 | 1012.5 |
| 20260506123454 | 17 | 89 | 8.0 | 8.0 | 0.00 | 0.00 | 0.00 | 83 | 1012.6 |
| 20260506122952 | 17 | 133 | 8.0 | 11.3 | 0.00 | 0.00 | 0.00 | 84 | 1012.4 |
| 20260506122449 | 17 | 24 | 8.0 | 11.3 | 0.00 | 0.00 | 0.00 | 83 | 1012.5 |
| 20260506121947 | 17 | 92 | 14.5 | 16.1 | 0.00 | 0.00 | 0.00 | 84 | 1012.4 |
| 20260506121444 | 16 | 46 | 6.4 | 9.7 | 0.00 | 0.00 | 0.00 | 85 | 1012.6 |
| 20260506120940 | 17 | 20 | 8.0 | 11.3 | 0.00 | 0.00 | 0.00 | 84 | 1012.5 |
| 20260506120438 | 16 | 32 | 8.0 | 11.3 | 0.00 | 0.00 | 0.00 | 85 | 1012.4 |
| 20260506115935 | 16 | 111 | 8.0 | 9.7 | 0.00 | 0.00 | 0.00 | 85 | 1012.4 |
| 20260506115433 | 16 | 236 | 6.4 | 8.0 | 0.00 | 0.00 | 0.00 | 86 | 1012.5 |
| 20260506114931 | 16 | 238 | 11.3 | 14.5 | 0.00 | 0.00 | 0.00 | 87 | 1012.5 |
| 20260506114428 | 16 | 69 | 9.7 | 12.9 | 0.00 | 0.00 | 0.00 | 87 | 1012.4 |
| 20260506113927 | 16 | 29 | 11.3 | 17.7 | 0.00 | 0.00 | 0.00 | 87 | 1012.2 |
| 20260506113424 | 16 | 83 | 11.3 | 14.5 | 0.00 | 0.00 | 0.00 | 87 | 1012.4 |
| 20260506112920 | 16 | 72 | 6.4 | 9.7 | 0.00 | 0.00 | 0.00 | 87 | 1012.4 |
| 20260506112419 | 16 | 96 | 6.4 | 9.7 | 0.00 | 0.00 | 0.00 | 87 | 1012.5 |
| 20260506111916 | 15 | 116 | 6.4 | 9.7 | 0.00 | 0.00 | 0.00 | 88 | 1012.4 |
| 20260506111414 | 15 | 18 | 11.3 | 14.5 | 0.00 | 0.00 | 0.00 | 89 | 1012.5 |
| 20260506110910 | 15 | 124 | 9.7 | 12.9 | 0.00 | 0.00 | 0.00 | 89 | 1012.7 |
| 20260506110408 | 15 | 341 | 3.2 | 4.8 | 0.00 | 0.00 | 0.00 | 90 | 1012.4 |
| 20260506105905 | 15 | 57 | 8.0 | 11.3 | 0.00 | 0.00 | 0.00 | 90 | 1012.4 |
| 20260506105401 | 15 | 87 | 8.0 | 9.7 | 0.00 | 0.00 | 0.00 | 90 | 1012.7 |
| 20260506104858 | 15 | 162 | 6.4 | 8.0 | 0.00 | 0.00 | 0.00 | 91 | 1012.7 |
| 20260506104356 | 15 | 112 | 9.7 | 11.3 | 0.00 | 0.00 | 0.00 | 91 | 1012.6 |
| 20260506103854 | 15 | 95 | 4.8 | 4.8 | 0.00 | 0.00 | 0.00 | 92 | 1012.2 |
| 20260506103351 | 15 | 138 | 4.8 | 4.8 | 0.00 | 0.00 | 0.00 | 92 | 1012.2 |
| 20260506102848 | 15 | 93 | 8.0 | 9.7 | 0.00 | 0.00 | 0.00 | 92 | 1012.2 |
| 20260506102346 | 15 | 126 | 9.7 | 11.3 | 0.00 | 0.00 | 0.00 | 92 | 1012.5 |
| 20260506101843 | 15 | 138 | 6.4 | 8.0 | 0.00 | 0.00 | 0.00 | 92 | 1012.4 |
| 20260506101339 | 15 | 225 | 3.2 | 3.2 | 0.00 | 0.00 | 0.00 | 92 | 1012.4 |
| 20260506100837 | 15 | 137 | 9.7 | 14.5 | 0.00 | 0.00 | 0.00 | 92 | 1012.2 |
| 20260506100335 | 15 | 116 | 6.4 | 9.7 | 0.00 | 0.00 | 0.00 | 92 | 1012.3 |
| 20260506095833 | 15 | 100 | 8.0 | 11.3 | 0.00 | 0.00 | 0.00 | 92 | 1012.2 |
| 20260506095330 | 15 | 56 | 6.4 | 9.7 | 0.00 | 0.00 | 0.00 | 92 | 1012.1 |
| 20260506094827 | 15 | 43 | 8.0 | 11.3 | 0.00 | 0.00 | 0.00 | 92 | 1012.0 |
| 20260506094326 | 15 | 115 | 9.7 | 14.5 | 0.00 | 0.00 | 0.00 | 92 | 1012.0 |
| 20260506093823 | 15 | 267 | 3.2 | 8.0 | 0.00 | 0.00 | 0.00 | 92 | 1012.2 |
| 20260506093320 | 15 | 41 | 6.4 | 9.7 | 0.00 | 0.00 | 0.00 | 92 | 1012.2 |
| 20260506092818 | 15 | 162 | 6.4 | 8.0 | 0.00 | 0.00 | 0.00 | 92 | 1012.3 |
| 20260506092316 | 15 | 108 | 8.0 | 9.7 | 0.00 | 0.00 | 0.00 | 92 | 1012.3 |
| 20260506091812 | 15 | 131 | 8.0 | 8.0 | 0.00 | 0.00 | 0.00 | 91 | 1012.3 |
| 20260506091310 | 15 | 135 | 6.4 | 9.7 | 0.00 | 0.00 | 0.00 | 91 | 1012.3 |
| 20260506090808 | 15 | 141 | 4.8 | 8.0 | 0.00 | 0.00 | 0.00 | 91 | 1012.4 |
| 20260506090304 | 15 | 51 | 8.0 | 9.7 | 0.00 | 0.00 | 0.00 | 91 | 1012.4 |
| 20260506085801 | 15 | 161 | 9.7 | 12.9 | 0.00 | 0.00 | 0.00 | 91 | 1012.4 |
| 20260506085257 | 15 | 147 | 11.3 | 12.9 | 0.00 | 0.00 | 0.00 | 91 | 1012.5 |
| 20260506084754 | 15 | 216 | 6.4 | 8.0 | 0.00 | 0.00 | 0.00 | 91 | 1012.6 |
| 20260506084250 | 15 | 164 | 6.4 | 8.0 | 0.00 | 0.00 | 0.00 | 91 | 1012.7 |
| 20260506083747 | 15 | 198 | 4.8 | 8.0 | 0.00 | 0.00 | 0.00 | 92 | 1012.6 |
| 20260506083245 | 15 | 65 | 8.0 | 11.3 | 0.00 | 0.00 | 0.00 | 91 | 1012.7 |
| 20260506082743 | 15 | 126 | 6.4 | 8.0 | 0.00 | 0.00 | 0.00 | 91 | 1012.8 |
| 20260506082237 | 15 | 202 | 4.8 | 4.8 | 0.00 | 0.00 | 0.00 | 91 | 1012.4 |
| 20260506081736 | 15 | 135 | 8.0 | 11.3 | 0.00 | 0.00 | 0.00 | 92 | 1012.5 |
| 20260506081233 | 15 | 123 | 4.8 | 4.8 | 0.00 | 0.00 | 0.00 | 91 | 1012.7 |
| 20260506080731 | 15 | 134 | 6.4 | 8.0 | 0.00 | 0.00 | 0.00 | 91 | 1012.4 |
| 20260506080227 | 15 | 141 | 4.8 | 8.0 | 0.00 | 0.00 | 0.00 | 91 | 1012.6 |
| 20260506073211 | 15 | 151 | 12.9 | 16.1 | 0.00 | 0.00 | 0.00 | 90 | 1012.8 |
| 20260506072708 | 15 | 136 | 6.4 | 9.7 | 0.00 | 0.00 | 0.00 | 90 | 1012.8 |
| 20260506072206 | 15 | 211 | 4.8 | 8.0 | 0.00 | 0.00 | 0.00 | 90 | 1012.8 |
| 20260506071703 | 15 | 160 | 6.4 | 8.0 | 0.00 | 0.00 | 0.00 | 90 | 1012.8 |
| 20260506071201 | 15 | 127 | 8.0 | 9.7 | 0.00 | 0.00 | 0.00 | 90 | 1012.9 |
| 20260506070657 | 15 | 234 | 6.4 | 9.7 | 0.00 | 0.00 | 0.00 | 90 | 1012.9 |
| 20260506070154 | 15 | 117 | 6.4 | 9.7 | 0.00 | 0.00 | 0.00 | 90 | 1012.7 |
| 20260506062131 | 15 | 265 | 8.0 | 11.3 | 0.00 | 0.00 | 0.00 | 88 | 1012.7 |
| 20260506061627 | 15 | 145 | 6.4 | 9.7 | 0.00 | 0.00 | 0.00 | 88 | 1012.8 |
| 20260506061125 | 15 | 126 | 8.0 | 9.7 | 0.00 | 0.00 | 0.00 | 88 | 1012.7 |
| 20260506060623 | 15 | 110 | 9.7 | 11.3 | 0.00 | 0.00 | 0.00 | 88 | 1013.1 |
| 20260506060120 | 15 | 188 | 8.0 | 11.3 | 0.00 | 0.00 | 0.00 | 87 | 1012.9 |
| 20260506051052 | 16 | 196 | 8.0 | 9.7 | 0.00 | 0.00 | 0.00 | 85 | 1013.2 |
| 20260506050550 | 16 | 73 | 8.0 | 9.7 | 0.00 | 0.00 | 0.00 | 85 | 1013.3 |
| 20260506045040 | 16 | 142 | 11.3 | 14.5 | 0.00 | 0.00 | 0.00 | 84 | 1013.4 |
| 20260506044538 | 16 | 60 | 8.0 | 14.5 | 0.00 | 0.00 | 0.00 | 84 | 1013.2 |
| 20260506044035 | 16 | 100 | 8.0 | 11.3 | 0.00 | 0.00 | 0.00 | 84 | 1013.3 |
| 20260506043532 | 16 | 63 | 6.4 | 9.7 | 0.00 | 0.00 | 0.00 | 84 | 1013.4 |
| 20260506043030 | 16 | 112 | 11.3 | 14.5 | 0.00 | 0.00 | 0.00 | 83 | 1013.3 |
| 20260506042529 | 16 | 122 | 8.0 | 11.3 | 0.00 | 0.00 | 0.00 | 84 | 1013.5 |
| 20260506042027 | 16 | 31 | 11.3 | 14.5 | 0.00 | 0.00 | 0.00 | 84 | 1013.4 |
| 20260506041525 | 16 | 144 | 8.0 | 12.9 | 0.00 | 0.00 | 0.00 | 84 | 1013.4 |
| 20260506041021 | 16 | 106 | 8.0 | 12.9 | 0.00 | 0.00 | 0.00 | 84 | 1013.3 |
| 20260506040519 | 16 | 124 | 8.0 | 14.5 | 0.00 | 0.00 | 0.00 | 84 | 1013.5 |
| 20260506040015 | 16 | 166 | 8.0 | 14.5 | 0.00 | 0.00 | 0.00 | 83 | 1013.2 |
| 20260506035512 | 16 | 135 | 4.8 | 9.7 | 0.00 | 0.00 | 0.00 | 83 | 1013.3 |
| 20260506035009 | 16 | 178 | 11.3 | 14.5 | 0.00 | 0.00 | 0.00 | 83 | 1013.3 |
| 20260506034507 | 16 | 114 | 9.7 | 12.9 | 0.00 | 0.00 | 0.00 | 83 | 1013.3 |
| 20260506034004 | 16 | 146 | 6.4 | 9.7 | 0.00 | 0.00 | 0.00 | 82 | 1013.3 |
| 20260506033501 | 16 | 118 | 9.7 | 14.5 | 0.00 | 0.00 | 0.00 | 82 | 1013.4 |
| 20260506032957 | 16 | 113 | 8.0 | 9.7 | 0.00 | 0.00 | 0.00 | 82 | 1013.4 |
| 20260506032455 | 16 | 179 | 6.4 | 9.7 | 0.00 | 0.00 | 0.00 | 83 | 1013.6 |
| 20260506031951 | 16 | 110 | 8.0 | 11.3 | 0.00 | 0.00 | 0.00 | 82 | 1013.7 |
| 20260506031449 | 16 | 72 | 8.0 | 11.3 | 0.00 | 0.00 | 0.00 | 82 | 1013.5 |
| 20260506030946 | 16 | 110 | 4.8 | 8.0 | 0.00 | 0.00 | 0.00 | 81 | 1013.2 |
| 20260506030444 | 16 | 136 | 11.3 | 17.7 | 0.00 | 0.00 | 0.00 | 81 | 1013.4 |
| 20260506025940 | 16 | 81 | 9.7 | 14.5 | 0.00 | 0.00 | 0.00 | 81 | 1013.4 |
| 20260506025437 | 16 | 192 | 8.0 | 12.9 | 0.00 | 0.00 | 0.00 | 81 | 1013.6 |
| 20260506024934 | 16 | 96 | 11.3 | 12.9 | 0.00 | 0.00 | 0.00 | 81 | 1013.3 |
| 20260506024431 | 16 | 44 | 11.3 | 17.7 | 0.00 | 0.00 | 0.00 | 80 | 1013.4 |
| 20260506023926 | 16 | 346 | 6.4 | 9.7 | 0.00 | 0.00 | 0.00 | 80 | 1013.2 |
| 20260506023424 | 16 | 141 | 11.3 | 14.5 | 0.00 | 0.00 | 0.00 | 80 | 1013.4 |
| 20260506022920 | 16 | 125 | 17.7 | 24.1 | 0.00 | 0.00 | 0.00 | 80 | 1013.4 |
| 20260506022418 | 16 | 100 | 12.9 | 20.9 | 0.00 | 0.00 | 0.00 | 79 | 1013.5 |
| 20260506021916 | 16 | 167 | 11.3 | 17.7 | 0.00 | 0.00 | 0.00 | 79 | 1013.6 |
| 20260506021413 | 16 | 162 | 14.5 | 14.5 | 0.00 | 0.00 | 0.00 | 79 | 1013.5 |
| 20260506020909 | 16 | 120 | 16.1 | 20.9 | 0.00 | 0.00 | 0.00 | 79 | 1013.4 |
| 20260506020408 | 16 | 180 | 14.5 | 20.9 | 0.00 | 0.00 | 0.00 | 79 | 1013.7 |
| 20260506015904 | 16 | 132 | 8.0 | 11.3 | 0.00 | 0.00 | 0.00 | 79 | 1013.5 |
| 20260506015402 | 16 | 132 | 14.5 | 17.7 | 0.00 | 0.00 | 0.00 | 79 | 1013.3 |
| 20260506014859 | 16 | 223 | 8.0 | 11.3 | 0.00 | 0.00 | 0.00 | 80 | 1013.7 |
| 20260506014356 | 16 | 109 | 12.9 | 16.1 | 0.00 | 0.00 | 0.00 | 80 | 1013.4 |
| 20260506013852 | 16 | 98 | 6.4 | 8.0 | 0.00 | 0.00 | 0.00 | 80 | 1013.4 |
| 20260506013350 | 16 | 96 | 9.7 | 14.5 | 0.00 | 0.00 | 0.00 | 80 | 1013.1 |
| 20260506012846 | 16 | 57 | 9.7 | 11.3 | 0.00 | 0.00 | 0.00 | 80 | 1013.6 |
| 20260506012343 | 16 | 110 | 11.3 | 14.5 | 0.00 | 0.00 | 0.00 | 80 | 1013.3 |
| 20260506011840 | 16 | 124 | 11.3 | 17.7 | 0.00 | 0.00 | 0.00 | 80 | 1013.3 |
| 20260506011337 | 16 | 142 | 9.7 | 14.5 | 0.00 | 0.00 | 0.00 | 80 | 1013.4 |
| 20260506010834 | 16 | 122 | 4.8 | 8.0 | 0.00 | 0.00 | 0.00 | 80 | 1013.1 |
| 20260506010332 | 16 | 152 | 9.7 | 12.9 | 0.00 | 0.00 | 0.00 | 81 | 1013.0 |
| 20260506005829 | 16 | 96 | 9.7 | 12.9 | 0.00 | 0.00 | 0.00 | 80 | 1013.1 |
| 20260506005326 | 16 | 122 | 9.7 | 16.1 | 0.00 | 0.00 | 0.00 | 80 | 1012.8 |
| 20260506004822 | 16 | 112 | 12.9 | 14.5 | 0.00 | 0.00 | 0.00 | 80 | 1012.7 |
| 20260506004319 | 16 | 58 | 12.9 | 24.1 | 0.00 | 0.00 | 0.00 | 79 | 1012.7 |
| 20260506003815 | 16 | 135 | 11.3 | 12.9 | 0.00 | 0.00 | 0.00 | 79 | 1012.8 |
| 20260506003312 | 16 | 103 | 11.3 | 16.1 | 0.00 | 0.00 | 0.00 | 79 | 1013.0 |
| 20260506002808 | 17 | 143 | 6.4 | 9.7 | 0.00 | 0.00 | 0.00 | 79 | 1013.0 |
| 20260506002306 | 17 | 150 | 8.0 | 11.3 | 0.00 | 0.00 | 0.00 | 78 | 1013.1 |
| 20260506001800 | 17 | 158 | 11.3 | 14.5 | 0.00 | 0.00 | 0.00 | 77 | 1012.8 |
| 20260506001258 | 17 | 117 | 12.9 | 14.5 | 0.00 | 0.00 | 0.00 | 76 | 1012.7 |
| 20260506000755 | 17 | 103 | 11.3 | 12.9 | 0.00 | 0.00 | 0.00 | 76 | 1012.6 |
| 20260506000254 | 17 | 122 | 12.9 | 16.1 | 0.00 | 0.00 | 0.00 | 75 | 1012.6 |
| 20260505235749 | 17 | 108 | 14.5 | 17.7 | 0.00 | 0.00 | 0.00 | 74 | 1012.6 |
| 20260505235247 | 18 | 90 | 11.3 | 16.1 | 0.00 | 0.00 | 0.00 | 73 | 1012.7 |
| 20260505234743 | 18 | 110 | 11.3 | 14.5 | 0.00 | 0.00 | 0.00 | 73 | 1012.5 |
| 20260505234241 | 18 | 120 | 11.3 | 14.5 | 0.00 | 0.00 | 0.00 | 73 | 1012.7 |
| 20260505233737 | 18 | 118 | 11.3 | 14.5 | 0.00 | 0.00 | 0.00 | 73 | 1012.6 |
| 20260505233236 | 18 | 66 | 14.5 | 20.9 | 0.00 | 0.00 | 0.00 | 72 | 1012.5 |
| 20260505232732 | 18 | 136 | 14.5 | 17.7 | 0.00 | 0.00 | 0.00 | 70 | 1012.4 |
| 20260505232230 | 18 | 198 | 14.5 | 24.1 | 0.00 | 0.00 | 0.00 | 70 | 1012.5 |
| 20260505231726 | 18 | 98 | 9.7 | 16.1 | 0.00 | 0.00 | 0.00 | 70 | 1012.4 |
| 20260505231226 | 18 | 90 | 9.7 | 12.9 | 0.00 | 0.00 | 0.00 | 69 | 1012.4 |
| 20260505230723 | 18 | 94 | 11.3 | 14.5 | 0.00 | 0.00 | 0.00 | 68 | 1012.2 |
| 20260505230219 | 18 | 87 | 24.1 | 32.2 | 0.00 | 0.00 | 0.00 | 67 | 1012.3 |
| 20260505225716 | 18 | 103 | 8.0 | 11.3 | 0.00 | 0.00 | 0.00 | 68 | 1012.1 |
| 20260505225213 | 18 | 106 | 9.7 | 12.9 | 0.00 | 0.00 | 0.00 | 67 | 1012.2 |
| 20260505224708 | 18 | 128 | 9.7 | 12.9 | 0.00 | 0.00 | 0.00 | 67 | 1012.2 |
| 20260505224206 | 19 | 91 | 12.9 | 17.7 | 0.00 | 0.00 | 0.00 | 67 | 1012.0 |
| 20260505223704 | 19 | 111 | 17.7 | 27.4 | 0.00 | 0.00 | 0.00 | 66 | 1011.9 |
| 20260505223200 | 20 | 140 | 14.5 | 17.7 | 0.00 | 0.00 | 0.00 | 65 | 1012.1 |
| 20260505222656 | 20 | 119 | 9.7 | 11.3 | 0.00 | 0.00 | 0.00 | 66 | 1011.8 |
| 20260505222152 | 20 | 136 | 8.0 | 11.3 | 0.00 | 0.00 | 0.00 | 65 | 1012.0 |
| 20260505221650 | 20 | 49 | 14.5 | 16.1 | 0.00 | 0.00 | 0.00 | 65 | 1012.2 |
| 20260505221146 | 20 | 105 | 14.5 | 17.7 | 0.00 | 0.00 | 0.00 | 66 | 1012.1 |
| 20260505220643 | 20 | 102 | 14.5 | 20.9 | 0.00 | 0.00 | 0.00 | 65 | 1012.2 |
| 20260505220141 | 20 | 104 | 8.0 | 11.3 | 0.00 | 0.00 | 0.00 | 66 | 1012.0 |
| 20260505215638 | 20 | 129 | 9.7 | 12.9 | 0.00 | 0.00 | 0.00 | 66 | 1011.8 |
| 20260505215136 | 20 | 126 | 16.1 | 20.9 | 0.00 | 0.00 | 0.00 | 66 | 1011.9 |
| 20260505214634 | 20 | 127 | 12.9 | 14.5 | 0.00 | 0.00 | 0.00 | 66 | 1012.3 |
| 20260505214131 | 19 | 80 | 8.0 | 11.3 | 0.00 | 0.00 | 0.00 | 66 | 1011.8 |
| 20260505213629 | 19 | 70 | 12.9 | 17.7 | 0.00 | 0.00 | 0.00 | 66 | 1011.8 |
| 20260505213125 | 19 | 117 | 11.3 | 12.9 | 0.00 | 0.00 | 0.00 | 67 | 1011.6 |
| 20260505212620 | 20 | 158 | 11.3 | 16.1 | 0.00 | 0.00 | 0.00 | 66 | 1011.7 |
| 20260505212119 | 20 | 65 | 11.3 | 17.7 | 0.00 | 0.00 | 0.00 | 65 | 1011.6 |
| 20260505211615 | 20 | 176 | 16.1 | 17.7 | 0.00 | 0.00 | 0.00 | 64 | 1011.7 |
| 20260505211113 | 20 | 98 | 16.1 | 22.5 | 0.00 | 0.00 | 0.00 | 63 | 1011.5 |
| 20260505210609 | 20 | 146 | 11.3 | 16.1 | 0.00 | 0.00 | 0.00 | 63 | 1011.5 |
| 20260505210106 | 20 | 39 | 9.7 | 12.9 | 0.00 | 0.00 | 0.00 | 63 | 1011.7 |
| 20260505205604 | 20 | 129 | 11.3 | 12.9 | 0.00 | 0.00 | 0.00 | 64 | 1011.6 |
| 20260505205101 | 21 | 97 | 19.3 | 24.1 | 0.00 | 0.00 | 0.00 | 62 | 1011.8 |
| 20260505204558 | 21 | 126 | 9.7 | 11.3 | 0.00 | 0.00 | 0.00 | 62 | 1011.5 |
| 20260505204056 | 21 | 166 | 16.1 | 20.9 | 0.00 | 0.00 | 0.00 | 61 | 1011.6 |
| 20260505203552 | 21 | 121 | 11.3 | 14.5 | 0.00 | 0.00 | 0.00 | 61 | 1011.4 |
| 20260505203049 | 21 | 55 | 8.0 | 11.3 | 0.00 | 0.00 | 0.00 | 61 | 1011.5 |
| 20260505202545 | 21 | 91 | 9.7 | 12.9 | 0.00 | 0.00 | 0.00 | 61 | 1011.3 |